createdAt,value
2023-02-12T00:01:35.343Z,99002.56
2023-02-12T00:04:03.460Z,98993.00
2023-02-12T00:06:31.513Z,99006.91
2023-02-12T00:08:59.957Z,99004.31
2023-02-12T00:11:29.623Z,99006.03
2023-02-12T00:13:59.427Z,99004.34
2023-02-12T00:16:29.304Z,99000.88
2023-02-12T00:18:58.773Z,99000.00
2023-02-12T00:21:26.891Z,98999.13
2023-02-12T00:23:55.192Z,99006.94
2023-02-12T00:26:24.146Z,98997.38
2023-02-12T00:28:53.294Z,98995.63
2023-02-12T00:31:24.590Z,99006.91
2023-02-12T00:33:52.817Z,99002.56
2023-02-12T00:36:22.742Z,99012.13
2023-02-12T00:38:52.968Z,99019.06
2023-02-12T00:41:21.996Z,99017.28
2023-02-12T00:43:50.743Z,99000.81
2023-02-12T00:46:19.508Z,99016.44
2023-02-12T00:48:49.113Z,99013.84
2023-02-12T00:51:20.127Z,99012.94
2023-02-12T00:53:48.230Z,99010.34
2023-02-12T00:56:16.403Z,99016.44
2023-02-12T00:58:44.663Z,99008.63
2023-02-12T01:01:12.808Z,99014.69
2023-02-12T01:03:40.970Z,99026.84
2023-02-12T01:06:10.690Z,99032.94
2023-02-12T01:08:38.831Z,99048.59
2023-02-12T01:11:08.172Z,99055.53
2023-02-12T01:13:36.855Z,99045.16
2023-02-12T01:16:08.858Z,99044.28
2023-02-12T01:18:37.826Z,99026.94
2023-02-12T01:21:12.943Z,99014.78
2023-02-12T01:23:41.236Z,99021.75
2023-02-12T01:26:12.202Z,99018.28
2023-02-12T01:28:40.588Z,99034.81
2023-02-12T01:31:12.068Z,99031.34
2023-02-12T01:33:40.732Z,99024.38
2023-02-12T01:36:09.926Z,99033.97
2023-02-12T01:38:39.534Z,99028.72
2023-02-12T01:41:11.856Z,99024.41
2023-02-12T01:43:40.369Z,99044.41
2023-02-12T01:46:11.579Z,99016.59
2023-02-12T01:48:43.420Z,99027.00
2023-02-12T01:51:16.115Z,99020.03
2023-02-12T01:53:51.996Z,99020.91
2023-02-12T01:56:20.619Z,99006.13
2023-02-12T01:58:52.551Z,99008.75
2023-02-12T02:01:24.103Z,99005.25
2023-02-12T02:03:57.009Z,99008.75
2023-02-12T02:06:29.549Z,99006.13
2023-02-12T02:08:59.130Z,99008.72
2023-02-12T02:11:44.511Z,99014.81
2023-02-12T02:14:30.366Z,99025.25
2023-02-12T02:17:11.351Z,99020.91
2023-02-12T02:20:02.523Z,99020.06
2023-02-12T02:22:39.152Z,98988.75
2023-02-12T02:25:30.826Z,99010.47
2023-02-12T02:28:13.241Z,99024.41
2023-02-12T02:30:47.140Z,99028.72
2023-02-12T02:33:24.682Z,99027.88
2023-02-12T02:36:03.113Z,99025.28
2023-02-12T02:38:41.130Z,99036.59
2023-02-12T02:41:22.683Z,99044.41
2023-02-12T02:43:53.180Z,99055.72
2023-02-12T02:46:31.055Z,99047.88
2023-02-12T02:49:03.220Z,99044.41
2023-02-12T02:51:34.451Z,99040.91
2023-02-12T02:54:09.305Z,99035.72
2023-02-12T02:56:40.460Z,99041.78
2023-02-12T02:59:13.220Z,99029.63
2023-02-12T03:01:46.688Z,99047.00
2023-02-12T03:04:20.605Z,99047.88
2023-02-12T03:07:07.934Z,99052.22
2023-02-12T03:09:42.099Z,99046.13
2023-02-12T03:12:15.453Z,99040.91
2023-02-12T03:14:47.881Z,99033.94
2023-02-12T03:17:23.296Z,99046.13
2023-02-12T03:19:56.477Z,99043.53
2023-02-12T03:22:29.522Z,99053.91
2023-02-12T03:25:04.809Z,99054.78
2023-02-12T03:27:36.282Z,99051.31
2023-02-12T03:30:05.522Z,99046.09
2023-02-12T03:32:44.413Z,99053.00
2023-02-12T03:35:21.058Z,99044.31
2023-02-12T03:38:02.826Z,99039.13
2023-02-12T03:40:36.216Z,99047.81
2023-02-12T03:43:08.121Z,99059.09
2023-02-12T03:45:43.761Z,99067.75
2023-02-12T03:48:21.516Z,99068.66
2023-02-12T03:50:55.636Z,99065.16
2023-02-12T03:53:24.085Z,99073.84
2023-02-12T03:55:57.714Z,99077.31
2023-02-12T03:58:31.165Z,99088.63
2023-02-12T04:01:00.135Z,99088.59
2023-02-12T04:03:30.814Z,99088.59
2023-02-12T04:05:59.181Z,99098.09
2023-02-12T04:08:28.747Z,99097.16
2023-02-12T04:11:13.105Z,99097.16
2023-02-12T04:13:50.896Z,99103.13
2023-02-12T04:16:26.736Z,99104.84
2023-02-12T04:18:56.914Z,99113.47
2023-02-12T04:21:39.566Z,99111.63
2023-02-12T04:24:19.295Z,99101.16
2023-02-12T04:26:53.309Z,99096.81
2023-02-12T04:29:28.118Z,99085.50
2023-02-12T04:32:00.785Z,99088.94
2023-02-12T04:34:36.678Z,99079.28
2023-02-12T04:37:11.202Z,99080.19
2023-02-12T04:39:42.362Z,99079.16
2023-02-12T04:42:10.644Z,99088.75
2023-02-12T04:44:43.593Z,99101.72
2023-02-12T04:47:13.357Z,99104.31
2023-02-12T04:49:43.095Z,99112.94
2023-02-12T04:52:11.238Z,99106.78
2023-02-12T04:54:39.672Z,99112.03
2023-02-12T04:57:07.823Z,99133.59
2023-02-12T04:59:35.998Z,99123.91
2023-02-12T05:02:04.219Z,99137.84
2023-02-12T05:04:32.293Z,99139.50
2023-02-12T05:07:01.821Z,99130.78
2023-02-12T05:09:29.983Z,99150.72
2023-02-12T05:11:58.104Z,99148.91
2023-02-12T05:14:26.657Z,99150.59
2023-02-12T05:16:54.802Z,99145.41
2023-02-12T05:19:22.909Z,99154.06
2023-02-12T05:21:52.230Z,99164.47
2023-02-12T05:24:21.761Z,99154.91
2023-02-12T05:26:50.541Z,99162.69
2023-02-12T05:29:19.048Z,99167.06
2023-02-12T05:31:47.528Z,99164.50
2023-02-12T05:34:15.993Z,99162.75
2023-02-12T05:36:44.085Z,99158.41
2023-02-12T05:39:12.610Z,99169.81
2023-02-12T05:41:42.106Z,99176.78
2023-02-12T05:44:12.064Z,99180.34
2023-02-12T05:46:40.420Z,99191.72
2023-02-12T05:49:08.778Z,99192.63
2023-02-12T05:51:37.374Z,99197.81
2023-02-12T05:54:07.025Z,99195.28
2023-02-12T05:56:37.059Z,99196.19
2023-02-12T05:59:10.079Z,99202.25
2023-02-12T06:01:39.772Z,99217.84
2023-02-12T06:04:12.607Z,99233.47
2023-02-12T06:06:42.178Z,99237.84
2023-02-12T06:09:11.051Z,99232.69
2023-02-12T06:11:39.689Z,99238.72
2023-02-12T06:14:12.717Z,99247.47
2023-02-12T06:16:41.531Z,99250.13
2023-02-12T06:19:10.876Z,99245.84
2023-02-12T06:21:39.088Z,99248.59
2023-02-12T06:24:07.479Z,99245.16
2023-02-12T06:26:35.653Z,99260.88
2023-02-12T06:29:03.759Z,99267.00
2023-02-12T06:31:35.278Z,99269.63
2023-02-12T06:34:05.489Z,99276.63
2023-02-12T06:36:34.027Z,99264.53
2023-02-12T06:39:03.076Z,99271.56
2023-02-12T06:41:31.456Z,99274.94
2023-02-12T06:43:59.642Z,99278.44
2023-02-12T06:46:28.064Z,99279.44
2023-02-12T06:48:59.305Z,99281.19
2023-02-12T06:51:29.017Z,99280.41
2023-02-12T06:53:57.532Z,99281.28
2023-02-12T06:56:28.095Z,99280.44
2023-02-12T06:58:57.701Z,99292.69
2023-02-12T07:01:28.842Z,99302.31
2023-02-12T07:04:00.169Z,99305.03
2023-02-12T07:06:29.639Z,99296.41
2023-02-12T07:08:58.633Z,99298.19
2023-02-12T07:11:27.653Z,99297.38
2023-02-12T07:13:55.970Z,99307.00
2023-02-12T07:16:24.543Z,99306.22
2023-02-12T07:18:52.769Z,99292.31
2023-02-12T07:21:22.376Z,99305.38
2023-02-12T07:23:52.127Z,99307.16
2023-02-12T07:26:22.112Z,99308.97
2023-02-12T07:28:50.900Z,99308.09
2023-02-12T07:31:21.303Z,99304.66
2023-02-12T07:33:50.332Z,99318.59
2023-02-12T07:36:19.942Z,99304.69
2023-02-12T07:38:49.549Z,99300.34
2023-02-12T07:41:19.976Z,99303.84
2023-02-12T07:43:49.992Z,99302.06
2023-02-12T07:46:20.381Z,99303.72
2023-02-12T07:48:49.305Z,99309.75
2023-02-12T07:51:19.991Z,99308.78
2023-02-12T07:53:50.110Z,99305.16
2023-02-12T07:56:20.553Z,99310.28
2023-02-12T07:58:50.818Z,99305.75
2023-02-12T08:01:22.015Z,99315.25
2023-02-12T08:03:51.922Z,99302.81
2023-02-12T08:06:23.067Z,99311.44
2023-02-12T08:08:54.199Z,99304.84
2023-02-12T08:11:23.022Z,99312.28
2023-02-12T08:13:51.615Z,99314.38
2023-02-12T08:16:21.614Z,99316.38
2023-02-12T08:18:50.688Z,99313.88
2023-02-12T08:21:20.561Z,99308.09
2023-02-12T08:23:50.971Z,99315.53
2023-02-12T08:26:23.225Z,99306.00
2023-02-12T08:28:53.608Z,99317.06
2023-02-12T08:31:23.664Z,99298.88
2023-02-12T08:33:53.337Z,99300.38
2023-02-12T08:36:24.151Z,99305.53
2023-02-12T08:38:52.521Z,99301.66
2023-02-12T08:41:24.218Z,99307.22
2023-02-12T08:43:54.965Z,99297.25
2023-02-12T08:46:25.741Z,99296.75
2023-02-12T08:48:55.248Z,99300.19
2023-02-12T08:51:25.224Z,99293.09
2023-02-12T08:53:55.671Z,99301.97
2023-02-12T08:56:26.343Z,99304.28
2023-02-12T08:58:54.506Z,99308.38
2023-02-12T09:01:25.085Z,99308.09
2023-02-12T09:03:53.623Z,99318.31
2023-02-12T09:06:23.922Z,99312.06
2023-02-12T09:08:53.837Z,99324.50
2023-02-12T09:11:24.483Z,99329.53
2023-02-12T09:13:54.670Z,99329.72
2023-02-12T09:16:22.872Z,99332.91
2023-02-12T09:18:51.023Z,99332.94
2023-02-12T09:21:19.957Z,99327.34
2023-02-12T09:23:48.562Z,99343.16
2023-02-12T09:26:20.799Z,99335.00
2023-02-12T09:28:50.016Z,99321.53
2023-02-12T09:31:23.263Z,99335.53
2023-02-12T09:33:55.031Z,99352.56
2023-02-12T09:36:23.455Z,99348.78
2023-02-12T09:38:51.682Z,99363.94
2023-02-12T09:41:48.578Z,99362.28
2023-02-12T09:44:23.896Z,99360.81
2023-02-12T09:47:00.087Z,99360.91
2023-02-12T09:49:46.654Z,99360.72
2023-02-12T09:52:18.825Z,99356.53
2023-02-12T09:54:49.207Z,99362.44
2023-02-12T09:57:22.306Z,99354.63
2023-02-12T09:59:54.961Z,99348.75
2023-02-12T10:02:25.925Z,99357.22
2023-02-12T10:05:01.649Z,99348.59
2023-02-12T10:07:41.679Z,99359.91
2023-02-12T10:10:28.346Z,99352.59
2023-02-12T10:13:01.575Z,99347.56
2023-02-12T10:15:37.298Z,99342.22
2023-02-12T10:18:40.834Z,99336.59
2023-02-12T10:21:21.398Z,99332.88
2023-02-12T10:24:12.793Z,99337.00
2023-02-12T10:26:44.698Z,99331.69
2023-02-12T10:29:17.315Z,99327.88
2023-02-12T10:31:48.499Z,99340.91
2023-02-12T10:34:21.431Z,99333.22
2023-02-12T10:36:52.798Z,99333.91
2023-02-12T10:39:25.433Z,99332.13
2023-02-12T10:41:59.457Z,99326.78
2023-02-12T10:44:28.061Z,99329.88
2023-02-12T10:46:56.924Z,99325.75
2023-02-12T10:49:25.407Z,99323.41
2023-02-12T10:52:14.797Z,99322.22
2023-02-12T10:54:45.737Z,99333.88
2023-02-12T10:57:22.117Z,99322.97
2023-02-12T10:59:53.264Z,99320.56
2023-02-12T11:02:27.439Z,99326.59
2023-02-12T11:04:58.419Z,99319.59
2023-02-12T11:07:29.418Z,99321.47
2023-02-12T11:09:58.901Z,99328.41
2023-02-12T11:12:38.386Z,99327.66
2023-02-12T11:15:16.111Z,99322.16
2023-02-12T11:17:47.309Z,99320.50
2023-02-12T11:20:25.718Z,99309.53
2023-02-12T11:22:58.608Z,99303.66
2023-02-12T11:25:33.000Z,99307.03
2023-02-12T11:28:15.468Z,99301.81
2023-02-12T11:30:53.611Z,99300.16
2023-02-12T11:33:28.439Z,99301.41
2023-02-12T11:35:59.543Z,99300.59
2023-02-12T11:38:38.843Z,99295.75
2023-02-12T11:41:25.591Z,99295.16
2023-02-12T11:43:55.638Z,99295.63
2023-02-12T11:46:28.121Z,99299.47
2023-02-12T11:49:00.879Z,99308.81
2023-02-12T11:51:33.561Z,99302.84
2023-02-12T11:54:06.686Z,99296.22
2023-02-12T11:56:44.744Z,99303.66
2023-02-12T11:59:33.585Z,99297.00
2023-02-12T12:02:10.714Z,99289.22
2023-02-12T12:04:42.201Z,99298.66
2023-02-12T12:07:17.943Z,99287.31
2023-02-12T12:09:53.182Z,99296.28
2023-02-12T12:12:26.804Z,99294.25
2023-02-12T12:15:18.846Z,99294.00
2023-02-12T12:18:10.750Z,99280.91
2023-02-12T12:20:45.585Z,99271.81
2023-02-12T12:23:20.104Z,99261.53
2023-02-12T12:25:52.956Z,99273.78
2023-02-12T12:28:34.391Z,99276.81
2023-02-12T12:31:09.851Z,99269.53
2023-02-12T12:33:43.924Z,99269.00
2023-02-12T12:36:48.105Z,99265.16
2023-02-12T12:39:25.152Z,99256.25
2023-02-12T12:42:13.056Z,99260.25
2023-02-12T12:44:54.043Z,99251.31
2023-02-12T12:47:31.343Z,99233.69
2023-02-12T12:50:15.295Z,99230.84
2023-02-12T12:53:20.020Z,99232.78
2023-02-12T12:56:12.318Z,99225.72
2023-02-12T12:59:09.978Z,99225.59
2023-02-12T13:01:55.746Z,99227.41
2023-02-12T13:05:02.385Z,99221.69
2023-02-12T13:07:52.266Z,99220.88
2023-02-12T13:10:34.490Z,99207.16
2023-02-12T13:13:15.237Z,99221.41
2023-02-12T13:15:55.599Z,99222.03
2023-02-12T13:18:38.724Z,99221.59
2023-02-12T13:21:15.217Z,99214.59
2023-02-12T13:23:50.779Z,99220.81
2023-02-12T13:26:30.867Z,99215.44
2023-02-12T13:29:06.298Z,99217.00
2023-02-12T13:31:41.450Z,99215.00
2023-02-12T13:34:16.487Z,99214.94
2023-02-12T13:36:46.779Z,99218.69
2023-02-12T13:39:25.009Z,99211.16
2023-02-12T13:42:06.104Z,99224.06
2023-02-12T13:44:41.558Z,99207.91
2023-02-12T13:47:19.831Z,99209.09
2023-02-12T13:49:55.014Z,99223.41
2023-02-12T13:52:33.088Z,99219.91
2023-02-12T13:55:23.166Z,99230.34
2023-02-12T13:58:25.653Z,99223.44
2023-02-12T14:01:07.599Z,99230.34
2023-02-12T14:03:42.111Z,99219.81
2023-02-12T14:06:18.429Z,99213.59
2023-02-12T14:08:52.053Z,99211.72
2023-02-12T14:11:26.178Z,99218.69
2023-02-12T14:13:58.797Z,99219.84
2023-02-12T14:16:41.407Z,99218.09
2023-02-12T14:19:54.522Z,99222.16
2023-02-12T14:23:00.097Z,99219.06
2023-02-12T14:25:40.093Z,99228.09
2023-02-12T14:28:21.790Z,99220.53
2023-02-12T14:31:32.221Z,99218.50
2023-02-12T14:34:52.307Z,99218.81
2023-02-12T14:37:39.252Z,99223.38
2023-02-12T14:40:44.051Z,99216.25
2023-02-12T14:43:35.418Z,99229.88
2023-02-12T14:46:37.615Z,99223.72
2023-02-12T14:49:07.748Z,99233.47
2023-02-12T14:51:43.924Z,99229.34
2023-02-12T14:54:21.801Z,99239.84
2023-02-12T14:56:56.077Z,99242.25
2023-02-12T14:59:28.827Z,99247.50
2023-02-12T15:02:02.710Z,99246.72
2023-02-12T15:04:35.144Z,99247.75
2023-02-12T15:07:09.544Z,99244.41
2023-02-12T15:09:47.637Z,99240.66
2023-02-12T15:12:27.008Z,99241.59
2023-02-12T15:15:06.656Z,99248.00
2023-02-12T15:17:41.149Z,99252.72
2023-02-12T15:20:21.946Z,99253.28
2023-02-12T15:22:51.442Z,99259.03
2023-02-12T15:25:27.929Z,99249.84
2023-02-12T15:28:00.076Z,99254.75
2023-02-12T15:30:33.263Z,99255.03
2023-02-12T15:33:06.398Z,99260.13
2023-02-12T15:35:39.234Z,99262.78
2023-02-12T15:38:10.124Z,99266.47
2023-02-12T15:40:57.297Z,99266.44
2023-02-12T15:43:30.804Z,99250.72
2023-02-12T15:46:00.664Z,99281.88
2023-02-12T15:48:42.187Z,99288.97
2023-02-12T15:51:24.776Z,99290.41
2023-02-12T15:53:54.868Z,99293.91
2023-02-12T15:56:28.081Z,99298.31
2023-02-12T15:58:59.865Z,99294.31
2023-02-12T16:01:31.861Z,99306.44
2023-02-12T16:04:03.726Z,99304.03
2023-02-12T16:06:35.352Z,99308.03
2023-02-12T16:09:10.004Z,99316.19
2023-02-12T16:11:44.592Z,99317.22
2023-02-12T16:14:25.488Z,99322.31
2023-02-12T16:16:58.335Z,99321.84
2023-02-12T16:19:33.541Z,99327.94
2023-02-12T16:22:16.940Z,99335.66
2023-02-12T16:24:50.082Z,99333.41
2023-02-12T16:27:23.446Z,99341.69
2023-02-12T16:29:55.421Z,99343.34
2023-02-12T16:32:38.611Z,99345.72
2023-02-12T16:35:25.941Z,99349.63
2023-02-12T16:37:58.485Z,99362.84
2023-02-12T16:40:38.299Z,99362.84
2023-02-12T16:43:27.328Z,99368.53
2023-02-12T16:46:08.396Z,99371.50
2023-02-12T16:48:43.109Z,99383.91
2023-02-12T16:51:24.283Z,99393.06
2023-02-12T16:53:58.144Z,99389.78
2023-02-12T16:56:30.009Z,99391.66
2023-02-12T16:59:02.543Z,99402.47
2023-02-12T17:01:35.193Z,99412.19
2023-02-12T17:04:09.672Z,99413.25
2023-02-12T17:06:38.705Z,99417.84
2023-02-12T17:09:08.940Z,99421.66
2023-02-12T17:11:42.371Z,99423.53
2023-02-12T17:14:16.047Z,99425.34
2023-02-12T17:16:48.103Z,99428.06
2023-02-12T17:19:19.318Z,99428.06
2023-02-12T17:21:49.675Z,99432.59
2023-02-12T17:24:26.223Z,99439.66
2023-02-12T17:26:55.885Z,99435.34
2023-02-12T17:29:32.896Z,99443.31
2023-02-12T17:32:02.727Z,99446.03
2023-02-12T17:34:46.508Z,99451.47
2023-02-12T17:37:19.246Z,99455.00
2023-02-12T17:39:50.948Z,99455.97
2023-02-12T17:42:24.458Z,99460.34
2023-02-12T17:44:59.295Z,99460.47
2023-02-12T17:47:28.380Z,99471.00
2023-02-12T17:50:01.600Z,99464.84
2023-02-12T17:52:31.326Z,99476.28
2023-02-12T17:55:00.902Z,99468.41
2023-02-12T17:57:30.610Z,99473.63
2023-02-12T18:00:02.313Z,99481.47
2023-02-12T18:02:39.966Z,99477.16
2023-02-12T18:05:10.940Z,99487.66
2023-02-12T18:07:40.449Z,99483.31
2023-02-12T18:10:12.354Z,99475.47
2023-02-12T18:12:46.097Z,99479.00
2023-02-12T18:15:17.712Z,99479.00
2023-02-12T18:17:49.432Z,99471.19
2023-02-12T18:20:23.882Z,99484.28
2023-02-12T18:22:57.662Z,99485.16
2023-02-12T18:25:28.375Z,99487.78
2023-02-12T18:27:58.651Z,99482.56
2023-02-12T18:30:40.961Z,99494.78
2023-02-12T18:33:14.656Z,99482.56
2023-02-12T18:35:45.022Z,99485.19
2023-02-12T18:38:18.552Z,99486.06
2023-02-12T18:40:49.082Z,99480.84
2023-02-12T18:43:20.037Z,99482.59
2023-02-12T18:45:51.296Z,99486.09
2023-02-12T18:48:21.187Z,99493.94
2023-02-12T18:50:58.063Z,99495.69
2023-02-12T18:53:27.680Z,99497.44
2023-02-12T18:56:02.451Z,99498.28
2023-02-12T18:58:33.220Z,99502.59
2023-02-12T19:01:14.924Z,99514.88
2023-02-12T19:03:46.011Z,99513.13
2023-02-12T19:06:25.954Z,99509.63
2023-02-12T19:08:59.001Z,99504.38
2023-02-12T19:11:30.927Z,99510.44
2023-02-12T19:14:05.694Z,99518.34
2023-02-12T19:16:37.932Z,99512.22
2023-02-12T19:19:08.567Z,99520.94
2023-02-12T19:21:38.962Z,99514.84
2023-02-12T19:24:12.417Z,99523.53
2023-02-12T19:26:43.151Z,99518.31
2023-02-12T19:29:19.128Z,99517.03
2023-02-12T19:31:51.148Z,99512.25
2023-02-12T19:34:25.383Z,99518.84
2023-02-12T19:37:05.363Z,99513.94
2023-02-12T19:39:41.647Z,99523.56
2023-02-12T19:42:15.377Z,99523.94
2023-02-12T19:44:49.693Z,99522.16
2023-02-12T19:47:22.708Z,99531.81
2023-02-12T19:49:53.361Z,99523.66
2023-02-12T19:52:24.597Z,99529.44
2023-02-12T19:54:58.744Z,99540.75
2023-02-12T19:57:32.142Z,99549.16
2023-02-12T20:00:04.258Z,99542.59
2023-02-12T20:02:36.758Z,99544.50
2023-02-12T20:05:10.758Z,99553.28
2023-02-12T20:07:43.806Z,99547.13
2023-02-12T20:10:18.015Z,99553.25
2023-02-12T20:12:49.887Z,99561.03
2023-02-12T20:15:25.697Z,99547.88
2023-02-12T20:17:58.019Z,99560.88
2023-02-12T20:20:28.710Z,99563.44
2023-02-12T20:22:59.243Z,99566.00
2023-02-12T20:25:30.806Z,99565.00
2023-02-12T20:28:01.576Z,99578.88
2023-02-12T20:30:33.059Z,99578.88
2023-02-12T20:33:04.857Z,99569.22
2023-02-12T20:35:40.324Z,99578.75
2023-02-12T20:38:12.886Z,99571.72
2023-02-12T20:40:42.444Z,99575.09
2023-02-12T20:43:16.833Z,99576.78
2023-02-12T20:45:50.480Z,99575.84
2023-02-12T20:48:23.226Z,99586.25
2023-02-12T20:50:53.500Z,99580.09
2023-02-12T20:53:23.906Z,99586.19
2023-02-12T20:55:56.334Z,99591.34
2023-02-12T20:58:26.295Z,99585.28
2023-02-12T21:00:59.251Z,99593.84
2023-02-12T21:03:32.420Z,99594.66
2023-02-12T21:06:01.264Z,99590.34
2023-02-12T21:08:33.803Z,99581.63
2023-02-12T21:11:04.260Z,99588.56
2023-02-12T21:13:35.292Z,99593.75
2023-02-12T21:16:09.851Z,99584.13
2023-02-12T21:18:44.976Z,99596.25
2023-02-12T21:21:15.932Z,99594.53
2023-02-12T21:23:45.752Z,99584.84
2023-02-12T21:26:18.158Z,99594.34
2023-02-12T21:28:48.352Z,99599.53
2023-02-12T21:31:19.784Z,99598.66
2023-02-12T21:33:53.595Z,99596.81
2023-02-12T21:36:26.445Z,99595.88
2023-02-12T21:38:56.085Z,99589.75
2023-02-12T21:41:26.611Z,99595.78
2023-02-12T21:44:01.188Z,99587.91
2023-02-12T21:46:30.929Z,99593.97
2023-02-12T21:49:08.629Z,99588.59
2023-02-12T21:51:40.223Z,99592.00
2023-02-12T21:54:10.916Z,99590.16
2023-02-12T21:56:42.560Z,99584.88
2023-02-12T21:59:12.142Z,99585.75
2023-02-12T22:01:43.899Z,99581.38
2023-02-12T22:04:14.956Z,99590.94
2023-02-12T22:06:48.549Z,99580.41
2023-02-12T22:09:18.534Z,99592.47
2023-02-12T22:11:46.740Z,99590.69
2023-02-12T22:14:17.534Z,99582.88
2023-02-12T22:16:46.202Z,99570.59
2023-02-12T22:19:15.802Z,99584.50
2023-02-12T22:21:44.496Z,99585.31
2023-02-12T22:24:16.859Z,99588.81
2023-02-12T22:26:46.178Z,99596.56
2023-02-12T22:29:17.984Z,99595.69
2023-02-12T22:31:47.529Z,99597.31
2023-02-12T22:34:18.943Z,99599.03
2023-02-12T22:36:47.914Z,99596.34
2023-02-12T22:39:18.691Z,99598.91
2023-02-12T22:41:46.865Z,99602.47
2023-02-12T22:44:15.885Z,99600.59
2023-02-12T22:46:44.456Z,99600.47
2023-02-12T22:49:12.654Z,99602.22
2023-02-12T22:51:42.600Z,99606.56
2023-02-12T22:54:14.483Z,99607.31
2023-02-12T22:56:43.169Z,99603.03
2023-02-12T22:59:12.284Z,99604.84
2023-02-12T23:01:40.701Z,99608.22
2023-02-12T23:04:09.177Z,99609.00
2023-02-12T23:06:40.810Z,99614.13
2023-02-12T23:09:14.257Z,99605.44
2023-02-12T23:11:42.454Z,99606.19
2023-02-12T23:14:10.575Z,99616.50
2023-02-12T23:16:38.701Z,99608.75
2023-02-12T23:19:06.962Z,99619.88
2023-02-12T23:21:35.396Z,99609.44
2023-02-12T23:24:03.649Z,99613.75
2023-02-12T23:26:33.442Z,99613.63
2023-02-12T23:29:01.499Z,99613.81
2023-02-12T23:31:29.723Z,99614.56
2023-02-12T23:33:57.910Z,99611.91
2023-02-12T23:36:26.110Z,99611.88
2023-02-12T23:38:54.234Z,99613.75
2023-02-12T23:41:22.321Z,99614.56
2023-02-12T23:43:51.955Z,99614.56
2023-02-12T23:46:20.137Z,99610.13
2023-02-12T23:48:48.257Z,99611.66
2023-02-12T23:51:16.324Z,99610.78
2023-02-12T23:53:44.438Z,99611.50
2023-02-12T23:56:12.543Z,99601.91
2023-02-12T23:58:40.695Z,99607.28
